Главная страница
METAR-TAF:

METAR-TAF

Аэропорты :

Эрста-Волда, Норвегия

широта: 62-11N, долгота: 006-04E, высота над уровнем моря: 7 м

Текущие метеонаблюдения

Эта сводка был подготовлена 28 минут назад, в 09:20 UTC
Ветер 2 Узел переменных направлений
Температура 19°C
Влажность 68%
Давление 1015 hPa
Видимость 10 км и более
Рассеянная облачность на высоте 3700 фута

METAR: ENOV 060920Z VRB02KT 9999 BKN037 19/13 Q1015 RMK WIND 2175FT 15012KT

Время: 11:48 (09:48 UTC)


TAF: отсутствует

Метеонаблюдения и прогнозы для более 4000 аэропортов (сводки METAR и TAF).

Имеющиеся станции представлены на карте желтыми и красными точками.

Чтобы увидеть название станции, наведите на нее мышь.

Затем щелкните, чтобы увидеть метеонаблюдения и метеопрогнозы.

Управление картой: чтобы увеличить масштаб, щелкните зеленые кнопки с черным крестиком; чтобы уменьшить масштаб, щелкните зеленую кнопку с тире; для просмотра соседних карт щелкайте зеленые стрелки.


METAR-TAF: